Main page
METAR-TAF:

METAR-TAF

Airports :

Auburn/Lewiston Municipal Airport

Auburn / Lewiston, Maine, United States

latitude: 44-03N, longitude: 070-17W, elevation: 289 ft

Current weather observation

The report was made 39 minutes ago, at 18:56 UTC
Wind 6 mph from the South/Southeast
Temperature 66°F
Humidity 73%
Pressure 29.70 in. Hg
Visibility: 10 miles
Overcast at a height of 5500 ft

METAR: KLEW 191856Z AUTO 16005KT 10SM OVC055 19/14 A2970 RMK AO2 SLP073 T01940139

Time: 15:35 (19:35 UTC)


TAF: missing

Weather observations and forecasts of more than 4000 airports (METAR and TAF reports).

The available stations are represented by yellow and red dots on the map.

Hover mouse over dot to see the name of the station.

Then click to see weather observations and forecasts.

To change the map : click on the green buttons with a black cross to zoom in, on the green button with a dash to zoom out, or on the green arrows for adjacent maps.


METAR-TAF: